Sarfaq Ittuk — OWDD — position and weather

sailwx.info

Track history (hours):
 
Tides and Currents Weather Stations Pressure Air Temp Water Temp Dewpoint Dewpoint Depression Visibility Wind Speed Wind Dir Waves Ship Positions

Sarfaq Ittuk

Last reported at 2017-Nov-18 06:50 UTC. Time now 2017-Nov-19 03:11 UTC.
Position N 65°08' W 052°50'.

Length 73 m; beam 11.1 m; draft 3.7 m.

Type: Passenger vessel. MMSI: 331000499.

Date/timePositionNaut miles runAvg speedWind from/ knotsBaromVisibWave heightAir tempDewpointWater temp
2017-Nov-18 06:50N 65°08' W 052°50'3 9.1
2017-Nov-18 06:30N 65°05' W 052°49'510.7
2017-Nov-18 06:00N 64°60' W 052°46'510.3
2017-Nov-18 05:30N 64°55' W 052°44'5 9.6
2017-Nov-18 05:00N 64°50' W 052°42'5 9.3
2017-Nov-18 04:30N 64°46' W 052°40'5 9.7
2017-Nov-18 04:00N 64°41' W 052°38'510.3
2017-Nov-18 03:30N 64°36' W 052°36'510.1
2017-Nov-18 03:00N 64°31' W 052°33'510.2
2017-Nov-18 02:30N 64°26' W 052°31'510.3
2017-Nov-18 02:01N 64°21' W 052°28'510.6
2017-Nov-18 01:30N 64°16' W 052°25'510.6
2017-Nov-18 01:00N 64°10' W 052°22'611.3
2017-Nov-18 00:30N 64°06' W 052°14'5 9.3
2017-Nov-18 00:00N 64°05' W 052°04'713.3
2017-Nov-17 23:30N 64°08' W 051°51'4 7.9
2017-Nov-17 23:00N 64°10' W 051°43'0 0.0
2017-Nov-17 22:31N 64°10' W 051°43'0 0.0
2017-Nov-17 22:00N 64°10' W 051°43'0 0.0
2017-Nov-17 21:30N 64°10' W 051°43'0 0.0
2017-Nov-17 21:00N 64°10' W 051°43'0 0.0
2017-Nov-17 20:30N 64°10' W 051°43'0 0.0
2017-Nov-17 20:00N 64°10' W 051°43'0 0.0
2017-Nov-17 19:30N 64°10' W 051°43'0 0.0
2017-Nov-17 19:00N 64°10' W 051°43'0 0.0
2017-Nov-17 18:30N 64°10' W 051°43'0 0.0
2017-Nov-17 18:00N 64°10' W 051°43'0 0.0
2017-Nov-17 17:31N 64°10' W 051°43'0 0.0
2017-Nov-17 17:01N 64°10' W 051°43'0 0.0
2017-Nov-17 16:30N 64°10' W 051°43'0 0.0
2017-Nov-17 16:00N 64°10' W 051°43'0 0.0
2017-Nov-17 15:30N 64°10' W 051°43'0 0.0
2017-Nov-17 15:00N 64°10' W 051°43'0 0.0
2017-Nov-17 14:30N 64°10' W 051°43'0 0.0
2017-Nov-17 14:00N 64°10' W 051°43'0 0.0
2017-Nov-17 13:30N 64°10' W 051°43'0 0.0
2017-Nov-17 13:00N 64°10' W 051°43'0 0.0
2017-Nov-17 12:30N 64°10' W 051°43'0 0.0
2017-Nov-17 12:00N 64°10' W 051°43'0 0.0
2017-Nov-17 11:31N 64°10' W 051°43'0 0.0
2017-Nov-17 11:00N 64°10' W 051°43'0 0.0
2017-Nov-17 10:30N 64°10' W 051°43'3 5.4
2017-Nov-17 10:00N 64°08' W 051°41'5 9.5
2017-Nov-17 09:30N 64°03' W 051°38'5 8.4
2017-Nov-17 08:57N 63°59' W 051°39'5 9.8
2017-Nov-17 08:28N 63°55' W 051°33'510.0
2017-Nov-17 08:00N 63°50' W 051°34'5 9.2
2017-Nov-17 07:31N 63°46' W 051°36'  
2017-Nov-14 14:29N 63°44' W 051°36'611.9
2017-Nov-14 14:00N 63°50' W 051°35'711.6
2017-Nov-14 13:26N 63°56' W 051°35'511.7
2017-Nov-14 13:00N 64°01' W 051°41'611.7
2017-Nov-14 12:30N 64°06' W 051°39'4 8.8
2017-Nov-14 12:00N 64°10' W 051°43'0 0.0
2017-Nov-14 11:30N 64°10' W 051°43'0 0.0
2017-Nov-14 11:00N 64°10' W 051°43'0 0.0
2017-Nov-14 10:30N 64°10' W 051°43'0 0.0
2017-Nov-14 10:00N 64°10' W 051°43'3 5.1
2017-Nov-14 09:30N 64°09' W 051°48'510.5
2017-Nov-14 09:00N 64°06' W 051°58'510.5
2017-Nov-14 08:30N 64°04' W 052°09'510.4
2017-Nov-14 08:00N 64°07' W 052°17'510.4
2017-Nov-14 07:30N 64°12' W 052°23'510.7
2017-Nov-14 07:00N 64°17' W 052°26'611.3
2017-Nov-14 06:30N 64°22' W 052°29'611.2
2017-Nov-14 06:00N 64°28' W 052°32'611.4
2017-Nov-14 05:30N 64°34' W 052°35'611.7
2017-Nov-14 05:00N 64°39' W 052°37'611.4
2017-Nov-14 04:30N 64°45' W 052°40'611.4
2017-Nov-14 04:00N 64°51' W 052°42'611.7
2017-Nov-14 03:30N 64°56' W 052°45'611.7
2017-Nov-14 03:00N 65°02' W 052°47'611.8
2017-Nov-14 02:30N 65°08' W 052°50'  
2017-Nov-11 07:07N 65°08' W 052°50'110.0
2017-Nov-11 07:00N 65°07' W 052°50'5 9.2
2017-Nov-11 06:30N 65°03' W 052°48'4 8.1
2017-Nov-11 06:00N 64°59' W 052°46'4 7.6
2017-Nov-11 05:30N 64°55' W 052°44'5 9.8
2017-Nov-11 05:00N 64°50' W 052°42'510.3
2017-Nov-11 04:30N 64°45' W 052°40'510.2
2017-Nov-11 04:00N 64°40' W 052°38'510.5
2017-Nov-11 03:30N 64°35' W 052°35'510.6
2017-Nov-11 03:00N 64°30' W 052°33'510.4
2017-Nov-11 02:30N 64°25' W 052°31'510.2
2017-Nov-11 02:00N 64°20' W 052°28'510.6
2017-Nov-11 01:30N 64°15' W 052°25'511.0
2017-Nov-11 01:00N 64°10' W 052°21'611.2
2017-Nov-11 00:31N 64°05' W 052°13'4 8.8
2017-Nov-11 00:00N 64°05' W 052°03'611.7
2017-Nov-10 23:30N 64°08' W 051°51'4 8.2
2017-Nov-10 23:00N 64°10' W 051°43'0 0.0
2017-Nov-10 22:30N 64°10' W 051°43'0 0.0
2017-Nov-10 22:00N 64°10' W 051°43'0 0.0
2017-Nov-10 21:30N 64°10' W 051°43'0 0.0
2017-Nov-10 21:01N 64°10' W 051°43'0 0.0
2017-Nov-10 20:31N 64°10' W 051°43'0 0.0
2017-Nov-10 20:00N 64°10' W 051°43'0 0.0
2017-Nov-10 19:30N 64°10' W 051°43'0 0.0
2017-Nov-10 19:01N 64°10' W 051°43'0 0.0
2017-Nov-10 18:30N 64°10' W 051°43'0 0.0
2017-Nov-10 18:00N 64°10' W 051°43'0 0.0
2017-Nov-10 17:30N 64°10' W 051°43'0 0.0
2017-Nov-10 17:00N 64°10' W 051°43'0 0.0
2017-Nov-10 16:30N 64°10' W 051°43'0 0.0
2017-Nov-10 16:00N 64°10' W 051°43'0 0.0
2017-Nov-10 15:30N 64°10' W 051°43'0 0.0
2017-Nov-10 15:00N 64°10' W 051°43'0 0.0
2017-Nov-10 14:30N 64°10' W 051°43'0 0.0
2017-Nov-10 14:00N 64°10' W 051°43'0 0.0
2017-Nov-10 13:30N 64°10' W 051°43'0 0.0
2017-Nov-10 13:00N 64°10' W 051°43'0 0.0
2017-Nov-10 12:30N 64°10' W 051°43'0 0.0
2017-Nov-10 12:00N 64°10' W 051°43'0 0.0
2017-Nov-10 11:30N 64°10' W 051°43'0 0.0
2017-Nov-10 11:00N 64°10' W 051°43'0 0.0
2017-Nov-10 10:30N 64°10' W 051°43'2 3.5
2017-Nov-10 10:00N 64°09' W 051°42'4 8.0
2017-Nov-10 09:30N 64°05' W 051°39'5 9.0
2017-Nov-10 09:00N 64°00' W 051°41'6 9.0
2017-Nov-10 08:18N 63°55' W 051°33'3 8.8
2017-Nov-10 08:00N 63°52' W 051°34'5 9.3
2017-Nov-10 07:30N 63°48' W 051°35'5 9.9
2017-Nov-10 07:00N 63°43' W 051°37'  
Track history (hours):
 
Tides and Currents Weather Stations Pressure Air Temp Water Temp Dewpoint Dewpoint Depression Visibility Wind Speed Wind Dir Waves Ship Positions

Sarfaq Ittuk

Last reported at 2017-Nov-18 06:50 UTC. Time now 2017-Nov-19 03:11 UTC.
Position N 65°08' W 052°50'.

Length 73 m; beam 11.1 m; draft 3.7 m.

Type: Passenger vessel. MMSI: 331000499.

Date/timePositionNaut miles runAvg speedWind from/ knotsBaromVisibWave heightAir tempDewpointWater temp
2017-Nov-18 06:50N 65°08' W 052°50'3 9.1
2017-Nov-18 06:30N 65°05' W 052°49'510.7
2017-Nov-18 06:00N 64°60' W 052°46'510.3
2017-Nov-18 05:30N 64°55' W 052°44'5 9.6
2017-Nov-18 05:00N 64°50' W 052°42'5 9.3
2017-Nov-18 04:30N 64°46' W 052°40'5 9.7
2017-Nov-18 04:00N 64°41' W 052°38'510.3
2017-Nov-18 03:30N 64°36' W 052°36'510.1
2017-Nov-18 03:00N 64°31' W 052°33'510.2
2017-Nov-18 02:30N 64°26' W 052°31'510.3
2017-Nov-18 02:01N 64°21' W 052°28'510.6
2017-Nov-18 01:30N 64°16' W 052°25'510.6
2017-Nov-18 01:00N 64°10' W 052°22'611.3
2017-Nov-18 00:30N 64°06' W 052°14'5 9.3
2017-Nov-18 00:00N 64°05' W 052°04'713.3
2017-Nov-17 23:30N 64°08' W 051°51'4 7.9
2017-Nov-17 23:00N 64°10' W 051°43'0 0.0
2017-Nov-17 22:31N 64°10' W 051°43'0 0.0
2017-Nov-17 22:00N 64°10' W 051°43'0 0.0
2017-Nov-17 21:30N 64°10' W 051°43'0 0.0
2017-Nov-17 21:00N 64°10' W 051°43'0 0.0
2017-Nov-17 20:30N 64°10' W 051°43'0 0.0
2017-Nov-17 20:00N 64°10' W 051°43'0 0.0
2017-Nov-17 19:30N 64°10' W 051°43'0 0.0
2017-Nov-17 19:00N 64°10' W 051°43'0 0.0
2017-Nov-17 18:30N 64°10' W 051°43'0 0.0
2017-Nov-17 18:00N 64°10' W 051°43'0 0.0
2017-Nov-17 17:31N 64°10' W 051°43'0 0.0
2017-Nov-17 17:01N 64°10' W 051°43'0 0.0
2017-Nov-17 16:30N 64°10' W 051°43'0 0.0
2017-Nov-17 16:00N 64°10' W 051°43'0 0.0
2017-Nov-17 15:30N 64°10' W 051°43'0 0.0
2017-Nov-17 15:00N 64°10' W 051°43'0 0.0
2017-Nov-17 14:30N 64°10' W 051°43'0 0.0
2017-Nov-17 14:00N 64°10' W 051°43'0 0.0
2017-Nov-17 13:30N 64°10' W 051°43'0 0.0
2017-Nov-17 13:00N 64°10' W 051°43'0 0.0
2017-Nov-17 12:30N 64°10' W 051°43'0 0.0
2017-Nov-17 12:00N 64°10' W 051°43'0 0.0
2017-Nov-17 11:31N 64°10' W 051°43'0 0.0
2017-Nov-17 11:00N 64°10' W 051°43'0 0.0
2017-Nov-17 10:30N 64°10' W 051°43'3 5.4
2017-Nov-17 10:00N 64°08' W 051°41'5 9.5
2017-Nov-17 09:30N 64°03' W 051°38'5 8.4
2017-Nov-17 08:57N 63°59' W 051°39'5 9.8
2017-Nov-17 08:28N 63°55' W 051°33'510.0
2017-Nov-17 08:00N 63°50' W 051°34'5 9.2
2017-Nov-17 07:31N 63°46' W 051°36'  
2017-Nov-14 14:29N 63°44' W 051°36'611.9
2017-Nov-14 14:00N 63°50' W 051°35'711.6
2017-Nov-14 13:26N 63°56' W 051°35'511.7
2017-Nov-14 13:00N 64°01' W 051°41'611.7
2017-Nov-14 12:30N 64°06' W 051°39'4 8.8
2017-Nov-14 12:00N 64°10' W 051°43'0 0.0
2017-Nov-14 11:30N 64°10' W 051°43'0 0.0
2017-Nov-14 11:00N 64°10' W 051°43'0 0.0
2017-Nov-14 10:30N 64°10' W 051°43'0 0.0
2017-Nov-14 10:00N 64°10' W 051°43'3 5.1
2017-Nov-14 09:30N 64°09' W 051°48'510.5
2017-Nov-14 09:00N 64°06' W 051°58'510.5
2017-Nov-14 08:30N 64°04' W 052°09'510.4
2017-Nov-14 08:00N 64°07' W 052°17'510.4
2017-Nov-14 07:30N 64°12' W 052°23'510.7
2017-Nov-14 07:00N 64°17' W 052°26'611.3
2017-Nov-14 06:30N 64°22' W 052°29'611.2
2017-Nov-14 06:00N 64°28' W 052°32'611.4
2017-Nov-14 05:30N 64°34' W 052°35'611.7
2017-Nov-14 05:00N 64°39' W 052°37'611.4
2017-Nov-14 04:30N 64°45' W 052°40'611.4
2017-Nov-14 04:00N 64°51' W 052°42'611.7
2017-Nov-14 03:30N 64°56' W 052°45'611.7
2017-Nov-14 03:00N 65°02' W 052°47'611.8
2017-Nov-14 02:30N 65°08' W 052°50'  
2017-Nov-11 07:07N 65°08' W 052°50'110.0
2017-Nov-11 07:00N 65°07' W 052°50'5 9.2
2017-Nov-11 06:30N 65°03' W 052°48'4 8.1
2017-Nov-11 06:00N 64°59' W 052°46'4 7.6
2017-Nov-11 05:30N 64°55' W 052°44'5 9.8
2017-Nov-11 05:00N 64°50' W 052°42'510.3
2017-Nov-11 04:30N 64°45' W 052°40'510.2
2017-Nov-11 04:00N 64°40' W 052°38'510.5
2017-Nov-11 03:30N 64°35' W 052°35'510.6
2017-Nov-11 03:00N 64°30' W 052°33'510.4
2017-Nov-11 02:30N 64°25' W 052°31'510.2
2017-Nov-11 02:00N 64°20' W 052°28'510.6
2017-Nov-11 01:30N 64°15' W 052°25'511.0
2017-Nov-11 01:00N 64°10' W 052°21'611.2
2017-Nov-11 00:31N 64°05' W 052°13'4 8.8
2017-Nov-11 00:00N 64°05' W 052°03'611.7
2017-Nov-10 23:30N 64°08' W 051°51'4 8.2
2017-Nov-10 23:00N 64°10' W 051°43'0 0.0
2017-Nov-10 22:30N 64°10' W 051°43'0 0.0
2017-Nov-10 22:00N 64°10' W 051°43'0 0.0
2017-Nov-10 21:30N 64°10' W 051°43'0 0.0
2017-Nov-10 21:01N 64°10' W 051°43'0 0.0
2017-Nov-10 20:31N 64°10' W 051°43'0 0.0
2017-Nov-10 20:00N 64°10' W 051°43'0 0.0
2017-Nov-10 19:30N 64°10' W 051°43'0 0.0
2017-Nov-10 19:01N 64°10' W 051°43'0 0.0
2017-Nov-10 18:30N 64°10' W 051°43'0 0.0
2017-Nov-10 18:00N 64°10' W 051°43'0 0.0
2017-Nov-10 17:30N 64°10' W 051°43'0 0.0
2017-Nov-10 17:00N 64°10' W 051°43'0 0.0
2017-Nov-10 16:30N 64°10' W 051°43'0 0.0
2017-Nov-10 16:00N 64°10' W 051°43'0 0.0
2017-Nov-10 15:30N 64°10' W 051°43'0 0.0
2017-Nov-10 15:00N 64°10' W 051°43'0 0.0
2017-Nov-10 14:30N 64°10' W 051°43'0 0.0
2017-Nov-10 14:00N 64°10' W 051°43'0 0.0
2017-Nov-10 13:30N 64°10' W 051°43'0 0.0
2017-Nov-10 13:00N 64°10' W 051°43'0 0.0
2017-Nov-10 12:30N 64°10' W 051°43'0 0.0
2017-Nov-10 12:00N 64°10' W 051°43'0 0.0
2017-Nov-10 11:30N 64°10' W 051°43'0 0.0
2017-Nov-10 11:00N 64°10' W 051°43'0 0.0
2017-Nov-10 10:30N 64°10' W 051°43'2 3.5
2017-Nov-10 10:00N 64°09' W 051°42'4 8.0
2017-Nov-10 09:30N 64°05' W 051°39'5 9.0
2017-Nov-10 09:00N 64°00' W 051°41'6 9.0
2017-Nov-10 08:18N 63°55' W 051°33'3 8.8
2017-Nov-10 08:00N 63°52' W 051°34'5 9.3
2017-Nov-10 07:30N 63°48' W 051°35'5 9.9
2017-Nov-10 07:00N 63°43' W 051°37'  

Dump ship's entire track history